sensor_id;sensor_type;location;lat;lon;timestamp;P1;durP1;ratioP1;P2;durP2;ratioP2
14470;SDS011;7321;50.802;4.336;2022-09-01T00:01:55;4.78;;;4.28;;
14470;SDS011;7321;50.802;4.336;2022-09-01T00:04:21;7.40;;;4.28;;
14470;SDS011;7321;50.802;4.336;2022-09-01T00:06:51;6.60;;;4.45;;
14470;SDS011;7321;50.802;4.336;2022-09-01T00:09:19;5.82;;;4.30;;
14470;SDS011;7321;50.802;4.336;2022-09-01T00:11:48;8.20;;;4.03;;
14470;SDS011;7321;50.802;4.336;2022-09-01T00:14:16;5.25;;;4.43;;
14470;SDS011;7321;50.802;4.336;2022-09-01T00:16:43;5.13;;;4.57;;
14470;SDS011;7321;50.802;4.336;2022-09-01T00:19:09;7.32;;;4.10;;
14470;SDS011;7321;50.802;4.336;2022-09-01T00:21:36;7.63;;;4.55;;
14470;SDS011;7321;50.802;4.336;2022-09-01T00:24:05;5.90;;;4.25;;
14470;SDS011;7321;50.802;4.336;2022-09-01T00:26:32;6.13;;;4.25;;
14470;SDS011;7321;50.802;4.336;2022-09-01T00:29:00;7.25;;;4.60;;
14470;SDS011;7321;50.802;4.336;2022-09-01T00:31:26;6.32;;;4.20;;
14470;SDS011;7321;50.802;4.336;2022-09-01T00:33:52;9.55;;;4.72;;
14470;SDS011;7321;50.802;4.336;2022-09-01T00:36:18;8.63;;;4.50;;
14470;SDS011;7321;50.802;4.336;2022-09-01T00:38:45;7.65;;;4.40;;
14470;SDS011;7321;50.802;4.336;2022-09-01T00:41:12;7.63;;;4.60;;
14470;SDS011;7321;50.802;4.336;2022-09-01T00:46:07;7.35;;;4.90;;
14470;SDS011;7321;50.802;4.336;2022-09-01T00:48:35;9.05;;;5.10;;
14470;SDS011;7321;50.802;4.336;2022-09-01T00:51:02;6.35;;;4.38;;
14470;SDS011;7321;50.802;4.336;2022-09-01T00:53:29;6.75;;;4.88;;
14470;SDS011;7321;50.802;4.336;2022-09-01T00:55:56;6.60;;;4.20;;
14470;SDS011;7321;50.802;4.336;2022-09-01T00:58:22;6.38;;;4.70;;
14470;SDS011;7321;50.802;4.336;2022-09-01T01:00:48;5.82;;;4.97;;
14470;SDS011;7321;50.802;4.336;2022-09-01T01:03:16;9.77;;;5.10;;
14470;SDS011;7321;50.802;4.336;2022-09-01T01:05:52;9.57;;;4.80;;
14470;SDS011;7321;50.802;4.336;2022-09-01T01:08:32;8.43;;;4.30;;
14470;SDS011;7321;50.802;4.336;2022-09-01T01:11:00;6.35;;;4.70;;
14470;SDS011;7321;50.802;4.336;2022-09-01T01:13:31;7.70;;;4.80;;
14470;SDS011;7321;50.802;4.336;2022-09-01T01:16:05;5.07;;;4.40;;
14470;SDS011;7321;50.802;4.336;2022-09-01T01:18:32;5.05;;;4.60;;
14470;SDS011;7321;50.802;4.336;2022-09-01T01:21:05;7.57;;;4.90;;
14470;SDS011;7321;50.802;4.336;2022-09-01T01:23:56;10.82;;;5.65;;
14470;SDS011;7321;50.802;4.336;2022-09-01T01:26:44;6.72;;;5.25;;
14470;SDS011;7321;50.802;4.336;2022-09-01T01:29:11;8.32;;;5.70;;
14470;SDS011;7321;50.802;4.336;2022-09-01T01:31:37;8.85;;;5.90;;
14470;SDS011;7321;50.802;4.336;2022-09-01T01:34:03;12.57;;;5.80;;
14470;SDS011;7321;50.802;4.336;2022-09-01T01:36:35;10.95;;;6.95;;
14470;SDS011;7321;50.802;4.336;2022-09-01T01:39:05;7.85;;;5.47;;
14470;SDS011;7321;50.802;4.336;2022-09-01T01:41:39;9.15;;;6.00;;
14470;SDS011;7321;50.802;4.336;2022-09-01T01:44:08;9.25;;;6.30;;
14470;SDS011;7321;50.802;4.336;2022-09-01T01:46:37;8.68;;;5.78;;
14470;SDS011;7321;50.802;4.336;2022-09-01T01:49:07;7.60;;;5.78;;
14470;SDS011;7321;50.802;4.336;2022-09-01T01:51:39;8.52;;;6.50;;
14470;SDS011;7321;50.802;4.336;2022-09-01T01:54:06;10.38;;;6.70;;
14470;SDS011;7321;50.802;4.336;2022-09-01T01:56:32;11.15;;;6.72;;
14470;SDS011;7321;50.802;4.336;2022-09-01T01:59:04;8.85;;;6.70;;
14470;SDS011;7321;50.802;4.336;2022-09-01T02:01:31;9.50;;;6.60;;
14470;SDS011;7321;50.802;4.336;2022-09-01T02:03:58;10.07;;;7.13;;
14470;SDS011;7321;50.802;4.336;2022-09-01T02:06:25;10.80;;;6.43;;
14470;SDS011;7321;50.802;4.336;2022-09-01T02:08:53;8.35;;;6.57;;
14470;SDS011;7321;50.802;4.336;2022-09-01T02:11:22;9.18;;;7.30;;
14470;SDS011;7321;50.802;4.336;2022-09-01T02:13:53;10.15;;;7.40;;
14470;SDS011;7321;50.802;4.336;2022-09-01T02:16:26;12.93;;;7.82;;
14470;SDS011;7321;50.802;4.336;2022-09-01T02:18:54;11.02;;;7.25;;
14470;SDS011;7321;50.802;4.336;2022-09-01T02:21:21;16.70;;;8.27;;
14470;SDS011;7321;50.802;4.336;2022-09-01T02:23:52;9.18;;;7.13;;
14470;SDS011;7321;50.802;4.336;2022-09-01T02:26:37;17.85;;;8.25;;
14470;SDS011;7321;50.802;4.336;2022-09-01T02:29:07;11.68;;;7.50;;
14470;SDS011;7321;50.802;4.336;2022-09-01T02:31:42;9.55;;;7.45;;
14470;SDS011;7321;50.802;4.336;2022-09-01T02:34:09;10.55;;;8.27;;
14470;SDS011;7321;50.802;4.336;2022-09-01T02:36:41;9.77;;;7.50;;
14470;SDS011;7321;50.802;4.336;2022-09-01T02:39:15;9.25;;;7.72;;
14470;SDS011;7321;50.802;4.336;2022-09-01T02:41:50;14.07;;;8.15;;
14470;SDS011;7321;50.802;4.336;2022-09-01T02:44:18;11.20;;;7.53;;
14470;SDS011;7321;50.802;4.336;2022-09-01T02:46:46;12.52;;;7.72;;
14470;SDS011;7321;50.802;4.336;2022-09-01T02:49:16;10.20;;;7.60;;
14470;SDS011;7321;50.802;4.336;2022-09-01T02:51:46;11.60;;;7.70;;
14470;SDS011;7321;50.802;4.336;2022-09-01T02:54:13;10.00;;;7.35;;
14470;SDS011;7321;50.802;4.336;2022-09-01T02:56:41;11.18;;;7.40;;
14470;SDS011;7321;50.802;4.336;2022-09-01T02:59:13;10.55;;;7.85;;
14470;SDS011;7321;50.802;4.336;2022-09-01T03:01:39;11.10;;;7.75;;
14470;SDS011;7321;50.802;4.336;2022-09-01T03:04:07;11.52;;;7.38;;
14470;SDS011;7321;50.802;4.336;2022-09-01T03:06:36;11.48;;;7.80;;
14470;SDS011;7321;50.802;4.336;2022-09-01T03:09:04;10.50;;;6.93;;
14470;SDS011;7321;50.802;4.336;2022-09-01T03:11:33;12.38;;;7.95;;
14470;SDS011;7321;50.802;4.336;2022-09-01T03:14:01;12.73;;;8.25;;
14470;SDS011;7321;50.802;4.336;2022-09-01T03:16:27;8.27;;;6.93;;
14470;SDS011;7321;50.802;4.336;2022-09-01T03:18:57;8.60;;;7.05;;
14470;SDS011;7321;50.802;4.336;2022-09-01T03:21:23;11.10;;;6.80;;
14470;SDS011;7321;50.802;4.336;2022-09-01T03:23:50;11.07;;;8.02;;
14470;SDS011;7321;50.802;4.336;2022-09-01T03:26:17;10.82;;;7.65;;
14470;SDS011;7321;50.802;4.336;2022-09-01T03:28:47;11.63;;;6.72;;
14470;SDS011;7321;50.802;4.336;2022-09-01T03:31:14;10.07;;;7.40;;
14470;SDS011;7321;50.802;4.336;2022-09-01T03:33:40;11.77;;;7.95;;
14470;SDS011;7321;50.802;4.336;2022-09-01T03:36:06;10.85;;;7.10;;
14470;SDS011;7321;50.802;4.336;2022-09-01T03:38:33;10.60;;;7.25;;
14470;SDS011;7321;50.802;4.336;2022-09-01T03:41:00;8.85;;;6.97;;
14470;SDS011;7321;50.802;4.336;2022-09-01T03:43:29;11.65;;;7.70;;
14470;SDS011;7321;50.802;4.336;2022-09-01T03:45:56;10.60;;;7.22;;
14470;SDS011;7321;50.802;4.336;2022-09-01T03:48:29;10.18;;;7.30;;
14470;SDS011;7321;50.802;4.336;2022-09-01T03:50:56;8.75;;;7.60;;
14470;SDS011;7321;50.802;4.336;2022-09-01T03:53:27;11.77;;;7.30;;
14470;SDS011;7321;50.802;4.336;2022-09-01T03:55:55;11.38;;;7.07;;
14470;SDS011;7321;50.802;4.336;2022-09-01T03:58:22;10.48;;;7.35;;
14470;SDS011;7321;50.802;4.336;2022-09-01T04:00:53;11.68;;;7.78;;
14470;SDS011;7321;50.802;4.336;2022-09-01T04:03:21;10.80;;;7.40;;
14470;SDS011;7321;50.802;4.336;2022-09-01T04:05:49;12.13;;;7.97;;
14470;SDS011;7321;50.802;4.336;2022-09-01T04:08:16;9.68;;;7.22;;
14470;SDS011;7321;50.802;4.336;2022-09-01T04:10:44;10.65;;;7.85;;
14470;SDS011;7321;50.802;4.336;2022-09-01T04:13:17;14.40;;;7.93;;
14470;SDS011;7321;50.802;4.336;2022-09-01T04:15:50;11.18;;;7.78;;
14470;SDS011;7321;50.802;4.336;2022-09-01T04:18:17;9.45;;;7.13;;
14470;SDS011;7321;50.802;4.336;2022-09-01T04:20:50;11.68;;;7.78;;
14470;SDS011;7321;50.802;4.336;2022-09-01T04:23:30;12.43;;;7.55;;
14470;SDS011;7321;50.802;4.336;2022-09-01T04:26:05;13.05;;;7.55;;
14470;SDS011;7321;50.802;4.336;2022-09-01T04:28:44;8.70;;;7.03;;
14470;SDS011;7321;50.802;4.336;2022-09-01T04:31:15;11.45;;;7.75;;
14470;SDS011;7321;50.802;4.336;2022-09-01T04:33:44;11.63;;;7.30;;
14470;SDS011;7321;50.802;4.336;2022-09-01T04:38:44;12.45;;;8.00;;
14470;SDS011;7321;50.802;4.336;2022-09-01T04:41:17;10.75;;;7.03;;
14470;SDS011;7321;50.802;4.336;2022-09-01T04:43:45;9.07;;;7.53;;
14470;SDS011;7321;50.802;4.336;2022-09-01T04:46:13;15.48;;;7.63;;
14470;SDS011;7321;50.802;4.336;2022-09-01T04:48:41;13.05;;;7.90;;
14470;SDS011;7321;50.802;4.336;2022-09-01T04:51:09;10.00;;;7.18;;
14470;SDS011;7321;50.802;4.336;2022-09-01T04:53:37;8.20;;;7.40;;
14470;SDS011;7321;50.802;4.336;2022-09-01T04:56:05;12.50;;;8.30;;
14470;SDS011;7321;50.802;4.336;2022-09-01T04:58:33;14.30;;;7.10;;
14470;SDS011;7321;50.802;4.336;2022-09-01T05:00:59;11.77;;;7.97;;
14470;SDS011;7321;50.802;4.336;2022-09-01T05:03:31;14.38;;;7.75;;
14470;SDS011;7321;50.802;4.336;2022-09-01T05:05:58;13.23;;;7.10;;
14470;SDS011;7321;50.802;4.336;2022-09-01T05:08:27;12.88;;;7.90;;
14470;SDS011;7321;50.802;4.336;2022-09-01T05:10:54;9.48;;;7.07;;
14470;SDS011;7321;50.802;4.336;2022-09-01T05:13:20;9.65;;;7.82;;
14470;SDS011;7321;50.802;4.336;2022-09-01T05:15:57;16.35;;;8.00;;
14470;SDS011;7321;50.802;4.336;2022-09-01T05:18:26;13.18;;;8.05;;
14470;SDS011;7321;50.802;4.336;2022-09-01T05:20:53;13.45;;;7.90;;
14470;SDS011;7321;50.802;4.336;2022-09-01T05:23:20;14.95;;;8.20;;
14470;SDS011;7321;50.802;4.336;2022-09-01T05:25:49;12.80;;;7.45;;
14470;SDS011;7321;50.802;4.336;2022-09-01T05:28:19;10.55;;;7.07;;
14470;SDS011;7321;50.802;4.336;2022-09-01T05:30:48;13.18;;;7.72;;
14470;SDS011;7321;50.802;4.336;2022-09-01T05:33:18;11.32;;;7.90;;
14470;SDS011;7321;50.802;4.336;2022-09-01T05:35:53;13.38;;;7.57;;
14470;SDS011;7321;50.802;4.336;2022-09-01T05:38:20;8.93;;;7.18;;
14470;SDS011;7321;50.802;4.336;2022-09-01T05:40:55;9.10;;;7.18;;
14470;SDS011;7321;50.802;4.336;2022-09-01T05:43:22;9.95;;;7.18;;
14470;SDS011;7321;50.802;4.336;2022-09-01T05:45:49;13.40;;;7.60;;
14470;SDS011;7321;50.802;4.336;2022-09-01T05:48:15;13.48;;;7.53;;
14470;SDS011;7321;50.802;4.336;2022-09-01T05:50:47;11.23;;;6.93;;
14470;SDS011;7321;50.802;4.336;2022-09-01T05:53:14;8.85;;;6.60;;
14470;SDS011;7321;50.802;4.336;2022-09-01T05:55:44;14.18;;;6.80;;
14470;SDS011;7321;50.802;4.336;2022-09-01T05:58:11;12.82;;;7.22;;
14470;SDS011;7321;50.802;4.336;2022-09-01T06:00:40;8.05;;;6.43;;
14470;SDS011;7321;50.802;4.336;2022-09-01T06:03:08;11.40;;;5.93;;
14470;SDS011;7321;50.802;4.336;2022-09-01T06:05:35;10.98;;;7.97;;
14470;SDS011;7321;50.802;4.336;2022-09-01T06:08:02;9.65;;;6.65;;
14470;SDS011;7321;50.802;4.336;2022-09-01T06:10:30;11.82;;;5.97;;
14470;SDS011;7321;50.802;4.336;2022-09-01T06:12:56;7.50;;;6.35;;
14470;SDS011;7321;50.802;4.336;2022-09-01T06:15:27;7.25;;;6.47;;
14470;SDS011;7321;50.802;4.336;2022-09-01T06:17:55;11.43;;;5.75;;
14470;SDS011;7321;50.802;4.336;2022-09-01T06:20:21;11.15;;;6.10;;
14470;SDS011;7321;50.802;4.336;2022-09-01T06:22:47;8.93;;;5.90;;
14470;SDS011;7321;50.802;4.336;2022-09-01T06:25:14;8.43;;;6.10;;
14470;SDS011;7321;50.802;4.336;2022-09-01T06:27:42;10.18;;;5.85;;
14470;SDS011;7321;50.802;4.336;2022-09-01T06:30:10;8.25;;;5.93;;
14470;SDS011;7321;50.802;4.336;2022-09-01T06:32:42;6.47;;;5.88;;
14470;SDS011;7321;50.802;4.336;2022-09-01T06:35:09;9.73;;;6.40;;
14470;SDS011;7321;50.802;4.336;2022-09-01T06:37:36;11.88;;;5.70;;
14470;SDS011;7321;50.802;4.336;2022-09-01T06:40:02;8.07;;;5.63;;
14470;SDS011;7321;50.802;4.336;2022-09-01T06:42:28;8.02;;;6.55;;
14470;SDS011;7321;50.802;4.336;2022-09-01T06:44:59;8.80;;;6.38;;
14470;SDS011;7321;50.802;4.336;2022-09-01T06:47:25;9.65;;;6.43;;
14470;SDS011;7321;50.802;4.336;2022-09-01T06:49:53;8.32;;;5.80;;
14470;SDS011;7321;50.802;4.336;2022-09-01T06:52:23;8.57;;;5.88;;
14470;SDS011;7321;50.802;4.336;2022-09-01T06:54:50;6.18;;;5.55;;
14470;SDS011;7321;50.802;4.336;2022-09-01T06:57:18;11.25;;;6.35;;
14470;SDS011;7321;50.802;4.336;2022-09-01T06:59:45;10.50;;;6.18;;
14470;SDS011;7321;50.802;4.336;2022-09-01T07:02:11;12.65;;;6.00;;
14470;SDS011;7321;50.802;4.336;2022-09-01T07:04:40;7.63;;;5.93;;
14470;SDS011;7321;50.802;4.336;2022-09-01T07:07:10;6.93;;;5.47;;
14470;SDS011;7321;50.802;4.336;2022-09-01T07:09:38;9.50;;;5.47;;
14470;SDS011;7321;50.802;4.336;2022-09-01T07:12:07;7.65;;;6.20;;
14470;SDS011;7321;50.802;4.336;2022-09-01T07:14:34;6.47;;;5.55;;
14470;SDS011;7321;50.802;4.336;2022-09-01T07:16:59;7.55;;;6.22;;
14470;SDS011;7321;50.802;4.336;2022-09-01T07:19:25;6.90;;;5.78;;
14470;SDS011;7321;50.802;4.336;2022-09-01T07:21:51;9.60;;;6.10;;
14470;SDS011;7321;50.802;4.336;2022-09-01T07:24:20;6.70;;;5.78;;
14470;SDS011;7321;50.802;4.336;2022-09-01T07:26:46;8.98;;;5.90;;
14470;SDS011;7321;50.802;4.336;2022-09-01T07:29:15;12.32;;;5.72;;
14470;SDS011;7321;50.802;4.336;2022-09-01T07:31:43;6.13;;;5.28;;
14470;SDS011;7321;50.802;4.336;2022-09-01T07:34:10;6.00;;;5.40;;
14470;SDS011;7321;50.802;4.336;2022-09-01T07:36:42;6.22;;;5.55;;
14470;SDS011;7321;50.802;4.336;2022-09-01T07:39:09;8.32;;;5.85;;
14470;SDS011;7321;50.802;4.336;2022-09-01T07:41:36;8.20;;;5.38;;
14470;SDS011;7321;50.802;4.336;2022-09-01T07:44:06;6.38;;;5.13;;
14470;SDS011;7321;50.802;4.336;2022-09-01T07:46:50;5.88;;;5.28;;
14470;SDS011;7321;50.802;4.336;2022-09-01T07:49:16;6.20;;;5.18;;
14470;SDS011;7321;50.802;4.336;2022-09-01T07:51:42;7.45;;;6.28;;
14470;SDS011;7321;50.802;4.336;2022-09-01T07:54:08;17.10;;;14.02;;
14470;SDS011;7321;50.802;4.336;2022-09-01T07:56:37;8.10;;;6.45;;
14470;SDS011;7321;50.802;4.336;2022-09-01T07:59:04;7.65;;;5.72;;
14470;SDS011;7321;50.802;4.336;2022-09-01T08:01:31;6.28;;;5.10;;
14470;SDS011;7321;50.802;4.336;2022-09-01T08:03:57;7.65;;;5.18;;
14470;SDS011;7321;50.802;4.336;2022-09-01T08:06:25;8.88;;;5.00;;
14470;SDS011;7321;50.802;4.336;2022-09-01T08:08:53;8.68;;;5.00;;
14470;SDS011;7321;50.802;4.336;2022-09-01T08:11:21;6.90;;;4.45;;
14470;SDS011;7321;50.802;4.336;2022-09-01T08:13:50;7.68;;;4.22;;
14470;SDS011;7321;50.802;4.336;2022-09-01T08:16:17;5.30;;;4.68;;
14470;SDS011;7321;50.802;4.336;2022-09-01T08:18:43;4.38;;;4.03;;
14470;SDS011;7321;50.802;4.336;2022-09-01T08:21:12;5.22;;;4.47;;
14470;SDS011;7321;50.802;4.336;2022-09-01T08:23:39;5.82;;;4.57;;
14470;SDS011;7321;50.802;4.336;2022-09-01T08:26:09;4.72;;;4.07;;
14470;SDS011;7321;50.802;4.336;2022-09-01T08:28:37;4.97;;;4.28;;
14470;SDS011;7321;50.802;4.336;2022-09-01T08:31:05;5.68;;;4.68;;
14470;SDS011;7321;50.802;4.336;2022-09-01T08:33:32;5.28;;;4.22;;
14470;SDS011;7321;50.802;4.336;2022-09-01T08:35:59;6.30;;;4.45;;
14470;SDS011;7321;50.802;4.336;2022-09-01T08:38:25;5.03;;;4.47;;
14470;SDS011;7321;50.802;4.336;2022-09-01T08:40:53;4.38;;;4.07;;
14470;SDS011;7321;50.802;4.336;2022-09-01T08:43:36;5.53;;;4.55;;
14470;SDS011;7321;50.802;4.336;2022-09-01T08:46:08;4.82;;;4.38;;
14470;SDS011;7321;50.802;4.336;2022-09-01T08:48:42;4.72;;;4.30;;
14470;SDS011;7321;50.802;4.336;2022-09-01T08:51:26;7.10;;;4.93;;
14470;SDS011;7321;50.802;4.336;2022-09-01T08:54:07;6.88;;;4.15;;
14470;SDS011;7321;50.802;4.336;2022-09-01T08:56:41;6.50;;;4.53;;
14470;SDS011;7321;50.802;4.336;2022-09-01T08:59:07;5.30;;;4.10;;
14470;SDS011;7321;50.802;4.336;2022-09-01T09:01:40;4.82;;;4.03;;
14470;SDS011;7321;50.802;4.336;2022-09-01T09:07:15;6.28;;;3.88;;
14470;SDS011;7321;50.802;4.336;2022-09-01T09:09:45;6.63;;;3.72;;
14470;SDS011;7321;50.802;4.336;2022-09-01T09:12:32;4.30;;;3.90;;
14470;SDS011;7321;50.802;4.336;2022-09-01T09:15:26;5.20;;;3.60;;
14470;SDS011;7321;50.802;4.336;2022-09-01T09:21:05;3.92;;;3.53;;
14470;SDS011;7321;50.802;4.336;2022-09-01T09:23:54;4.13;;;3.80;;
14470;SDS011;7321;50.802;4.336;2022-09-01T09:26:30;4.15;;;3.75;;
14470;SDS011;7321;50.802;4.336;2022-09-01T09:28:56;4.57;;;3.78;;
14470;SDS011;7321;50.802;4.336;2022-09-01T09:31:30;4.13;;;3.72;;
14470;SDS011;7321;50.802;4.336;2022-09-01T09:34:15;4.03;;;3.63;;
14470;SDS011;7321;50.802;4.336;2022-09-01T09:36:51;3.78;;;3.40;;
14470;SDS011;7321;50.802;4.336;2022-09-01T09:39:17;5.80;;;3.70;;
14470;SDS011;7321;50.802;4.336;2022-09-01T09:41:43;5.88;;;3.65;;
14470;SDS011;7321;50.802;4.336;2022-09-01T09:44:37;6.70;;;4.68;;
14470;SDS011;7321;50.802;4.336;2022-09-01T09:47:09;4.40;;;4.00;;
14470;SDS011;7321;50.802;4.336;2022-09-01T09:52:42;5.95;;;3.70;;
14470;SDS011;7321;50.802;4.336;2022-09-01T09:57:42;5.85;;;3.90;;
14470;SDS011;7321;50.802;4.336;2022-09-01T10:00:17;6.75;;;3.45;;
14470;SDS011;7321;50.802;4.336;2022-09-01T10:02:56;3.60;;;3.35;;
14470;SDS011;7321;50.802;4.336;2022-09-01T10:07:59;5.18;;;3.20;;
14470;SDS011;7321;50.802;4.336;2022-09-01T10:10:39;5.57;;;2.60;;
14470;SDS011;7321;50.802;4.336;2022-09-01T10:15:46;3.35;;;2.90;;
14470;SDS011;7321;50.802;4.336;2022-09-01T10:18:18;3.63;;;2.70;;
14470;SDS011;7321;50.802;4.336;2022-09-01T10:21:22;4.90;;;4.15;;
14470;SDS011;7321;50.802;4.336;2022-09-01T10:24:03;3.50;;;2.53;;
14470;SDS011;7321;50.802;4.336;2022-09-01T10:26:50;4.22;;;2.50;;
14470;SDS011;7321;50.802;4.336;2022-09-01T10:31:59;3.72;;;2.38;;
14470;SDS011;7321;50.802;4.336;2022-09-01T10:34:31;3.53;;;2.63;;
14470;SDS011;7321;50.802;4.336;2022-09-01T10:36:59;4.10;;;2.22;;
14470;SDS011;7321;50.802;4.336;2022-09-01T10:39:25;4.18;;;2.33;;
14470;SDS011;7321;50.802;4.336;2022-09-01T10:41:51;2.45;;;2.25;;
14470;SDS011;7321;50.802;4.336;2022-09-01T10:44:32;3.05;;;2.20;;
14470;SDS011;7321;50.802;4.336;2022-09-01T10:47:28;2.97;;;2.20;;
14470;SDS011;7321;50.802;4.336;2022-09-01T10:52:57;8.10;;;2.78;;
14470;SDS011;7321;50.802;4.336;2022-09-01T10:55:30;4.25;;;2.15;;
14470;SDS011;7321;50.802;4.336;2022-09-01T10:58:07;3.72;;;2.40;;
14470;SDS011;7321;50.802;4.336;2022-09-01T11:00:54;6.70;;;6.03;;
14470;SDS011;7321;50.802;4.336;2022-09-01T11:03:31;9.95;;;7.05;;
14470;SDS011;7321;50.802;4.336;2022-09-01T11:06:00;6.30;;;4.60;;
14470;SDS011;7321;50.802;4.336;2022-09-01T11:11:05;4.63;;;2.60;;
14470;SDS011;7321;50.802;4.336;2022-09-01T11:13:44;2.70;;;2.28;;
14470;SDS011;7321;50.802;4.336;2022-09-01T11:16:32;2.80;;;2.60;;
14470;SDS011;7321;50.802;4.336;2022-09-01T11:19:21;4.30;;;2.25;;
14470;SDS011;7321;50.802;4.336;2022-09-01T11:22:29;3.58;;;2.40;;
14470;SDS011;7321;50.802;4.336;2022-09-01T11:30:55;4.90;;;2.15;;
14470;SDS011;7321;50.802;4.336;2022-09-01T11:35:40;3.10;;;2.42;;
14470;SDS011;7321;50.802;4.336;2022-09-01T11:38:09;2.72;;;2.03;;
14470;SDS011;7321;50.802;4.336;2022-09-01T11:40:39;2.65;;;2.40;;
14470;SDS011;7321;50.802;4.336;2022-09-01T11:43:14;3.28;;;2.03;;
14470;SDS011;7321;50.802;4.336;2022-09-01T11:45:49;7.18;;;2.70;;
14470;SDS011;7321;50.802;4.336;2022-09-01T11:48:29;2.72;;;2.45;;
14470;SDS011;7321;50.802;4.336;2022-09-01T11:50:56;2.45;;;2.00;;
14470;SDS011;7321;50.802;4.336;2022-09-01T11:53:25;4.95;;;2.45;;
14470;SDS011;7321;50.802;4.336;2022-09-01T11:55:52;2.58;;;2.20;;
14470;SDS011;7321;50.802;4.336;2022-09-01T12:00:54;2.80;;;2.15;;
14470;SDS011;7321;50.802;4.336;2022-09-01T12:03:22;6.72;;;2.00;;
14470;SDS011;7321;50.802;4.336;2022-09-01T12:05:57;5.63;;;2.40;;
14470;SDS011;7321;50.802;4.336;2022-09-01T12:08:26;4.03;;;2.58;;
14470;SDS011;7321;50.802;4.336;2022-09-01T12:11:05;2.45;;;2.00;;
14470;SDS011;7321;50.802;4.336;2022-09-01T12:13:37;2.85;;;2.55;;
14470;SDS011;7321;50.802;4.336;2022-09-01T12:16:05;4.53;;;2.58;;
14470;SDS011;7321;50.802;4.336;2022-09-01T12:18:34;5.07;;;2.38;;
14470;SDS011;7321;50.802;4.336;2022-09-01T12:21:04;3.90;;;2.65;;
14470;SDS011;7321;50.802;4.336;2022-09-01T12:23:41;4.93;;;2.55;;
14470;SDS011;7321;50.802;4.336;2022-09-01T12:26:09;3.53;;;2.20;;
14470;SDS011;7321;50.802;4.336;2022-09-01T12:28:37;5.00;;;2.17;;
14470;SDS011;7321;50.802;4.336;2022-09-01T12:31:07;2.88;;;2.40;;
14470;SDS011;7321;50.802;4.336;2022-09-01T12:33:41;3.65;;;2.63;;
14470;SDS011;7321;50.802;4.336;2022-09-01T12:36:12;3.50;;;2.35;;
14470;SDS011;7321;50.802;4.336;2022-09-01T12:38:46;2.45;;;2.25;;
14470;SDS011;7321;50.802;4.336;2022-09-01T12:43:56;4.38;;;2.40;;
14470;SDS011;7321;50.802;4.336;2022-09-01T12:47:01;5.78;;;2.90;;
14470;SDS011;7321;50.802;4.336;2022-09-01T12:49:42;3.67;;;2.47;;
14470;SDS011;7321;50.802;4.336;2022-09-01T12:54:38;2.50;;;2.30;;
14470;SDS011;7321;50.802;4.336;2022-09-01T12:57:04;7.30;;;2.65;;
14470;SDS011;7321;50.802;4.336;2022-09-01T12:59:30;4.20;;;2.85;;
14470;SDS011;7321;50.802;4.336;2022-09-01T13:01:56;3.22;;;2.42;;
14470;SDS011;7321;50.802;4.336;2022-09-01T13:06:53;3.65;;;2.40;;
14470;SDS011;7321;50.802;4.336;2022-09-01T13:09:24;2.80;;;2.40;;
14470;SDS011;7321;50.802;4.336;2022-09-01T13:11:50;2.72;;;2.40;;
14470;SDS011;7321;50.802;4.336;2022-09-01T13:14:15;4.43;;;2.67;;
14470;SDS011;7321;50.802;4.336;2022-09-01T13:16:42;3.20;;;2.17;;
14470;SDS011;7321;50.802;4.336;2022-09-01T13:19:08;2.60;;;2.40;;
14470;SDS011;7321;50.802;4.336;2022-09-01T13:21:34;2.70;;;2.45;;
14470;SDS011;7321;50.802;4.336;2022-09-01T13:24:01;3.22;;;3.03;;
14470;SDS011;7321;50.802;4.336;2022-09-01T13:26:29;3.75;;;2.63;;
14470;SDS011;7321;50.802;4.336;2022-09-01T13:28:55;5.65;;;2.85;;
14470;SDS011;7321;50.802;4.336;2022-09-01T13:31:22;3.42;;;2.63;;
14470;SDS011;7321;50.802;4.336;2022-09-01T13:33:48;2.63;;;2.33;;
14470;SDS011;7321;50.802;4.336;2022-09-01T13:36:14;3.97;;;2.40;;
14470;SDS011;7321;50.802;4.336;2022-09-01T13:38:40;4.00;;;2.92;;
14470;SDS011;7321;50.802;4.336;2022-09-01T13:41:06;4.35;;;2.35;;
14470;SDS011;7321;50.802;4.336;2022-09-01T13:43:35;2.50;;;2.30;;
14470;SDS011;7321;50.802;4.336;2022-09-01T13:46:01;3.45;;;2.50;;
14470;SDS011;7321;50.802;4.336;2022-09-01T13:48:26;2.90;;;2.63;;
14470;SDS011;7321;50.802;4.336;2022-09-01T13:50:53;3.03;;;2.78;;
14470;SDS011;7321;50.802;4.336;2022-09-01T13:53:18;3.50;;;2.80;;
14470;SDS011;7321;50.802;4.336;2022-09-01T13:55:45;2.95;;;2.65;;
14470;SDS011;7321;50.802;4.336;2022-09-01T13:58:12;2.85;;;2.50;;
14470;SDS011;7321;50.802;4.336;2022-09-01T14:00:40;3.08;;;2.40;;
14470;SDS011;7321;50.802;4.336;2022-09-01T14:03:10;2.60;;;2.40;;
14470;SDS011;7321;50.802;4.336;2022-09-01T14:05:42;3.33;;;2.30;;
14470;SDS011;7321;50.802;4.336;2022-09-01T14:08:17;3.83;;;2.28;;
14470;SDS011;7321;50.802;4.336;2022-09-01T14:10:47;4.85;;;2.92;;
14470;SDS011;7321;50.802;4.336;2022-09-01T14:13:15;4.07;;;2.75;;
14470;SDS011;7321;50.802;4.336;2022-09-01T14:15:42;3.50;;;2.65;;
14470;SDS011;7321;50.802;4.336;2022-09-01T14:18:08;2.40;;;2.20;;
14470;SDS011;7321;50.802;4.336;2022-09-01T14:20:36;5.63;;;2.67;;
14470;SDS011;7321;50.802;4.336;2022-09-01T14:23:05;2.97;;;2.30;;
14470;SDS011;7321;50.802;4.336;2022-09-01T14:25:33;3.13;;;2.55;;
14470;SDS011;7321;50.802;4.336;2022-09-01T14:27:59;3.13;;;2.40;;
14470;SDS011;7321;50.802;4.336;2022-09-01T14:30:27;4.15;;;2.80;;
14470;SDS011;7321;50.802;4.336;2022-09-01T14:32:54;2.78;;;2.55;;
14470;SDS011;7321;50.802;4.336;2022-09-01T14:35:21;2.72;;;2.50;;
14470;SDS011;7321;50.802;4.336;2022-09-01T14:37:51;4.32;;;2.13;;
14470;SDS011;7321;50.802;4.336;2022-09-01T14:40:18;3.63;;;2.40;;
14470;SDS011;7321;50.802;4.336;2022-09-01T14:42:46;4.03;;;2.35;;
14470;SDS011;7321;50.802;4.336;2022-09-01T14:45:17;2.35;;;2.15;;
14470;SDS011;7321;50.802;4.336;2022-09-01T14:47:46;2.90;;;1.95;;
14470;SDS011;7321;50.802;4.336;2022-09-01T14:50:13;2.97;;;2.25;;
14470;SDS011;7321;50.802;4.336;2022-09-01T14:52:40;2.67;;;2.47;;
14470;SDS011;7321;50.802;4.336;2022-09-01T14:55:07;2.80;;;2.30;;
14470;SDS011;7321;50.802;4.336;2022-09-01T14:57:33;3.13;;;2.38;;
14470;SDS011;7321;50.802;4.336;2022-09-01T15:00:04;4.80;;;2.28;;
14470;SDS011;7321;50.802;4.336;2022-09-01T15:02:34;2.70;;;2.25;;
14470;SDS011;7321;50.802;4.336;2022-09-01T15:05:00;4.55;;;2.20;;
14470;SDS011;7321;50.802;4.336;2022-09-01T15:07:26;2.35;;;1.90;;
14470;SDS011;7321;50.802;4.336;2022-09-01T15:09:52;4.53;;;2.05;;
14470;SDS011;7321;50.802;4.336;2022-09-01T15:12:18;2.45;;;2.17;;
14470;SDS011;7321;50.802;4.336;2022-09-01T15:14:44;3.25;;;2.17;;
14470;SDS011;7321;50.802;4.336;2022-09-01T15:17:09;2.50;;;2.25;;
14470;SDS011;7321;50.802;4.336;2022-09-01T15:19:35;4.65;;;2.28;;
14470;SDS011;7321;50.802;4.336;2022-09-01T15:22:01;6.13;;;2.25;;
14470;SDS011;7321;50.802;4.336;2022-09-01T15:24:28;4.15;;;2.40;;
14470;SDS011;7321;50.802;4.336;2022-09-01T15:26:54;4.60;;;1.92;;
14470;SDS011;7321;50.802;4.336;2022-09-01T15:29:20;4.03;;;1.80;;
14470;SDS011;7321;50.802;4.336;2022-09-01T15:31:46;5.03;;;2.08;;
14470;SDS011;7321;50.802;4.336;2022-09-01T15:34:11;2.22;;;1.80;;
14470;SDS011;7321;50.802;4.336;2022-09-01T15:36:38;5.40;;;2.08;;
14470;SDS011;7321;50.802;4.336;2022-09-01T15:39:06;2.45;;;2.00;;
14470;SDS011;7321;50.802;4.336;2022-09-01T15:41:33;3.30;;;2.10;;
14470;SDS011;7321;50.802;4.336;2022-09-01T15:44:00;2.22;;;2.03;;
14470;SDS011;7321;50.802;4.336;2022-09-01T15:46:32;2.13;;;1.70;;
14470;SDS011;7321;50.802;4.336;2022-09-01T15:48:59;4.10;;;2.05;;
14470;SDS011;7321;50.802;4.336;2022-09-01T15:51:28;2.92;;;1.85;;
14470;SDS011;7321;50.802;4.336;2022-09-01T15:54:08;3.20;;;2.17;;
14470;SDS011;7321;50.802;4.336;2022-09-01T15:56:36;2.90;;;1.60;;
14470;SDS011;7321;50.802;4.336;2022-09-01T15:59:03;3.28;;;1.83;;
14470;SDS011;7321;50.802;4.336;2022-09-01T16:01:31;2.55;;;1.95;;
14470;SDS011;7321;50.802;4.336;2022-09-01T16:04:00;2.53;;;1.60;;